sensor_id;sensor_type;location;lat;lon;timestamp;pressure;altitude;pressure_sealevel;temperature;humidity
44359;BME280;30077;52.474;13.326;2022-11-30T00:00:42;101629.06;;;4.55;100.00
44359;BME280;30077;52.474;13.326;2022-11-30T00:05:42;101635.22;;;4.59;100.00
44359;BME280;30077;52.474;13.326;2022-11-30T00:10:43;101637.03;;;4.54;100.00
44359;BME280;30077;52.474;13.326;2022-11-30T00:15:43;101637.84;;;4.61;100.00
44359;BME280;30077;52.474;13.326;2022-11-30T00:20:45;101638.75;;;4.58;100.00
44359;BME280;30077;52.474;13.326;2022-11-30T00:25:47;101639.63;;;4.60;100.00
44359;BME280;30077;52.474;13.326;2022-11-30T00:30:56;101637.03;;;4.51;100.00
44359;BME280;30077;52.474;13.326;2022-11-30T00:35:58;101640.53;;;4.56;100.00
44359;BME280;30077;52.474;13.326;2022-11-30T00:40:59;101629.97;;;4.50;100.00
44359;BME280;30077;52.474;13.326;2022-11-30T00:46:00;101629.97;;;4.50;100.00
44359;BME280;30077;52.474;13.326;2022-11-30T00:51:00;101629.97;;;4.51;100.00
44359;BME280;30077;52.474;13.326;2022-11-30T00:56:01;101639.69;;;4.48;100.00
44359;BME280;30077;52.474;13.326;2022-11-30T01:01:01;101642.31;;;4.48;100.00
44359;BME280;30077;52.474;13.326;2022-11-30T01:06:07;101641.47;;;4.47;100.00
44359;BME280;30077;52.474;13.326;2022-11-30T01:11:14;101651.97;;;4.53;100.00
44359;BME280;30077;52.474;13.326;2022-11-30T01:16:21;101639.66;;;4.52;100.00
44359;BME280;30077;52.474;13.326;2022-11-30T01:21:25;101642.34;;;4.45;100.00
44359;BME280;30077;52.474;13.326;2022-11-30T01:26:25;101653.78;;;4.45;100.00
44359;BME280;30077;52.474;13.326;2022-11-30T01:31:25;101656.44;;;4.44;100.00
44359;BME280;30077;52.474;13.326;2022-11-30T01:36:26;101658.25;;;4.32;100.00
44359;BME280;30077;52.474;13.326;2022-11-30T01:41:30;101668.78;;;4.35;100.00
44359;BME280;30077;52.474;13.326;2022-11-30T01:46:32;101659.09;;;4.31;100.00
44359;BME280;30077;52.474;13.326;2022-11-30T01:51:44;101664.38;;;4.31;100.00
44359;BME280;30077;52.474;13.326;2022-11-30T01:56:49;101661.78;;;4.25;100.00
44359;BME280;30077;52.474;13.326;2022-11-30T02:01:52;101663.53;;;4.32;100.00
44359;BME280;30077;52.474;13.326;2022-11-30T02:06:53;101667.91;;;4.40;100.00
44359;BME280;30077;52.474;13.326;2022-11-30T02:11:56;101665.25;;;4.41;100.00
44359;BME280;30077;52.474;13.326;2022-11-30T02:17:25;101665.28;;;4.40;100.00
44359;BME280;30077;52.474;13.326;2022-11-30T02:22:57;101664.41;;;4.33;100.00
44359;BME280;30077;52.474;13.326;2022-11-30T02:33:33;101671.47;;;4.29;100.00
44359;BME280;30077;52.474;13.326;2022-11-30T02:38:35;101670.56;;;4.30;100.00
44359;BME280;30077;52.474;13.326;2022-11-30T02:43:35;101674.09;;;4.32;100.00
44359;BME280;30077;52.474;13.326;2022-11-30T02:48:48;101667.94;;;4.29;100.00
44359;BME280;30077;52.474;13.326;2022-11-30T02:53:51;101661.75;;;4.31;100.00
44359;BME280;30077;52.474;13.326;2022-11-30T02:58:51;101667.91;;;4.35;100.00
44359;BME280;30077;52.474;13.326;2022-11-30T03:03:52;101672.31;;;4.31;100.00
44359;BME280;30077;52.474;13.326;2022-11-30T03:08:53;101679.38;;;4.29;100.00
44359;BME280;30077;52.474;13.326;2022-11-30T03:13:53;101684.66;;;4.32;100.00
44359;BME280;30077;52.474;13.326;2022-11-30T03:18:56;101682.88;;;4.34;100.00
44359;BME280;30077;52.474;13.326;2022-11-30T03:23:56;101687.31;;;4.32;100.00
44359;BME280;30077;52.474;13.326;2022-11-30T03:28:56;101686.41;;;4.30;100.00
44359;BME280;30077;52.474;13.326;2022-11-30T03:33:57;101684.66;;;4.29;100.00
44359;BME280;30077;52.474;13.326;2022-11-30T03:38:57;101681.13;;;4.33;100.00
44359;BME280;30077;52.474;13.326;2022-11-30T03:43:57;101689.94;;;4.26;100.00
44359;BME280;30077;52.474;13.326;2022-11-30T03:48:58;101689.94;;;4.29;100.00
44359;BME280;30077;52.474;13.326;2022-11-30T03:53:58;101691.69;;;4.27;100.00
44359;BME280;30077;52.474;13.326;2022-11-30T03:58:59;101699.66;;;4.20;100.00
44359;BME280;30077;52.474;13.326;2022-11-30T04:03:59;101702.25;;;4.30;100.00
44359;BME280;30077;52.474;13.326;2022-11-30T04:08:59;101703.16;;;4.29;100.00
44359;BME280;30077;52.474;13.326;2022-11-30T04:13:59;101700.50;;;4.32;100.00
44359;BME280;30077;52.474;13.326;2022-11-30T04:19:00;101709.31;;;4.33;100.00
44359;BME280;30077;52.474;13.326;2022-11-30T04:24:01;101706.69;;;4.24;100.00
44359;BME280;30077;52.474;13.326;2022-11-30T04:29:02;101702.31;;;4.21;100.00
44359;BME280;30077;52.474;13.326;2022-11-30T04:34:04;101705.81;;;4.17;100.00
44359;BME280;30077;52.474;13.326;2022-11-30T04:39:04;101725.19;;;4.16;100.00
44359;BME280;30077;52.474;13.326;2022-11-30T04:44:04;101721.66;;;4.17;100.00
44359;BME280;30077;52.474;13.326;2022-11-30T04:49:05;101739.28;;;4.21;100.00
44359;BME280;30077;52.474;13.326;2022-11-30T04:54:05;101734.00;;;4.20;100.00
44359;BME280;30077;52.474;13.326;2022-11-30T04:59:05;101732.25;;;4.14;100.00
44359;BME280;30077;52.474;13.326;2022-11-30T05:04:05;101722.53;;;4.10;100.00
44359;BME280;30077;52.474;13.326;2022-11-30T05:09:06;101734.00;;;4.09;100.00
44359;BME280;30077;52.474;13.326;2022-11-30T05:14:06;101737.50;;;4.17;100.00
44359;BME280;30077;52.474;13.326;2022-11-30T05:19:06;101741.03;;;4.16;100.00
44359;BME280;30077;52.474;13.326;2022-11-30T05:24:07;101742.78;;;4.17;100.00
44359;BME280;30077;52.474;13.326;2022-11-30T05:29:07;101748.06;;;4.20;100.00
44359;BME280;30077;52.474;13.326;2022-11-30T05:34:07;101757.78;;;4.18;100.00
44359;BME280;30077;52.474;13.326;2022-11-30T05:39:08;101761.28;;;4.17;100.00
44359;BME280;30077;52.474;13.326;2022-11-30T05:44:08;101758.63;;;4.17;100.00
44359;BME280;30077;52.474;13.326;2022-11-30T05:49:08;101763.94;;;4.14;100.00
44359;BME280;30077;52.474;13.326;2022-11-30T05:54:09;101773.59;;;4.14;100.00
44359;BME280;30077;52.474;13.326;2022-11-30T05:59:09;101764.81;;;4.15;100.00
44359;BME280;30077;52.474;13.326;2022-11-30T06:04:10;101785.06;;;4.11;100.00
44359;BME280;30077;52.474;13.326;2022-11-30T06:09:10;101779.78;;;4.11;100.00
44359;BME280;30077;52.474;13.326;2022-11-30T06:14:12;101787.72;;;4.11;100.00
44359;BME280;30077;52.474;13.326;2022-11-30T06:19:12;101777.16;;;4.11;100.00
44359;BME280;30077;52.474;13.326;2022-11-30T06:24:12;101780.66;;;4.15;100.00
44359;BME280;30077;52.474;13.326;2022-11-30T06:29:14;101782.41;;;4.13;100.00
44359;BME280;30077;52.474;13.326;2022-11-30T06:34:14;101789.44;;;4.14;100.00
44359;BME280;30077;52.474;13.326;2022-11-30T06:39:14;101800.91;;;4.14;100.00
44359;BME280;30077;52.474;13.326;2022-11-30T06:44:15;101792.09;;;4.18;100.00
44359;BME280;30077;52.474;13.326;2022-11-30T06:49:15;101802.66;;;4.18;100.00
44359;BME280;30077;52.474;13.326;2022-11-30T06:54:15;101806.16;;;4.17;100.00
44359;BME280;30077;52.474;13.326;2022-11-30T06:59:15;101814.09;;;4.16;100.00
44359;BME280;30077;52.474;13.326;2022-11-30T07:04:16;101823.78;;;4.15;100.00
44359;BME280;30077;52.474;13.326;2022-11-30T07:09:16;101820.28;;;4.22;100.00
44359;BME280;30077;52.474;13.326;2022-11-30T07:14:16;101822.91;;;4.16;100.00
44359;BME280;30077;52.474;13.326;2022-11-30T07:19:18;101825.56;;;4.19;100.00
44359;BME280;30077;52.474;13.326;2022-11-30T07:24:18;101836.13;;;4.22;100.00
44359;BME280;30077;52.474;13.326;2022-11-30T07:29:39;101843.16;;;4.29;100.00
44359;BME280;30077;52.474;13.326;2022-11-30T07:34:39;101844.91;;;4.27;100.00
44359;BME280;30077;52.474;13.326;2022-11-30T07:39:39;101845.78;;;4.28;100.00
44359;BME280;30077;52.474;13.326;2022-11-30T07:44:40;101844.91;;;4.33;100.00
44359;BME280;30077;52.474;13.326;2022-11-30T07:49:40;101848.44;;;4.35;100.00
44359;BME280;30077;52.474;13.326;2022-11-30T07:54:42;101844.94;;;4.40;100.00
44359;BME280;30077;52.474;13.326;2022-11-30T07:59:42;101852.84;;;4.38;100.00
44359;BME280;30077;52.474;13.326;2022-11-30T08:04:42;101853.72;;;4.45;100.00
44359;BME280;30077;52.474;13.326;2022-11-30T08:09:44;101851.94;;;4.50;100.00
44359;BME280;30077;52.474;13.326;2022-11-30T08:14:44;101852.81;;;4.56;100.00
44359;BME280;30077;52.474;13.326;2022-11-30T08:19:44;101861.59;;;4.65;100.00
44359;BME280;30077;52.474;13.326;2022-11-30T08:24:44;101860.72;;;4.67;100.00
44359;BME280;30077;52.474;13.326;2022-11-30T08:29:46;101873.06;;;4.71;100.00
44359;BME280;30077;52.474;13.326;2022-11-30T08:34:46;101875.69;;;4.82;100.00
44359;BME280;30077;52.474;13.326;2022-11-30T08:39:47;101878.34;;;4.87;100.00
44359;BME280;30077;52.474;13.326;2022-11-30T08:44:47;101880.06;;;4.94;100.00
44359;BME280;30077;52.474;13.326;2022-11-30T08:49:47;101886.22;;;5.05;100.00
44359;BME280;30077;52.474;13.326;2022-11-30T08:54:47;101887.09;;;5.05;100.00
44359;BME280;30077;52.474;13.326;2022-11-30T08:59:48;101887.97;;;5.04;99.30
44359;BME280;30077;52.474;13.326;2022-11-30T09:04:48;101897.66;;;5.01;100.00
44359;BME280;30077;52.474;13.326;2022-11-30T09:09:50;101888.88;;;5.05;99.57
44359;BME280;30077;52.474;13.326;2022-11-30T09:14:50;101891.50;;;5.13;99.15
44359;BME280;30077;52.474;13.326;2022-11-30T09:19:50;101895.84;;;5.27;99.10
44359;BME280;30077;52.474;13.326;2022-11-30T09:24:50;101893.09;;;5.53;97.90
44359;BME280;30077;52.474;13.326;2022-11-30T09:29:51;101894.78;;;5.68;96.33
44359;BME280;30077;52.474;13.326;2022-11-30T09:34:51;101896.59;;;5.57;95.44
44359;BME280;30077;52.474;13.326;2022-11-30T09:39:53;101893.94;;;5.60;95.74
44359;BME280;30077;52.474;13.326;2022-11-30T09:45:13;101897.44;;;5.68;95.92
44359;BME280;30077;52.474;13.326;2022-11-30T09:50:19;101900.09;;;5.67;94.90
44359;BME280;30077;52.474;13.326;2022-11-30T09:55:26;101894.81;;;5.62;95.55
44359;BME280;30077;52.474;13.326;2022-11-30T10:00:28;101885.09;;;5.70;94.08
44359;BME280;30077;52.474;13.326;2022-11-30T10:10:44;101880.59;;;5.82;92.93
44359;BME280;30077;52.474;13.326;2022-11-30T10:26:44;101886.63;;;6.11;91.52
44359;BME280;30077;52.474;13.326;2022-11-30T10:31:54;101890.16;;;6.12;90.99
44359;BME280;30077;52.474;13.326;2022-11-30T10:37:03;101883.00;;;6.21;91.26
44359;BME280;30077;52.474;13.326;2022-11-30T10:42:12;101885.47;;;6.44;90.74
44359;BME280;30077;52.474;13.326;2022-11-30T10:47:20;101886.34;;;6.45;89.58
44359;BME280;30077;52.474;13.326;2022-11-30T10:52:25;101891.69;;;6.39;88.96
44359;BME280;30077;52.474;13.326;2022-11-30T10:57:31;101889.97;;;6.35;89.16
44359;BME280;30077;52.474;13.326;2022-11-30T11:02:44;101879.34;;;6.35;88.93
44359;BME280;30077;52.474;13.326;2022-11-30T11:07:53;101878.50;;;6.33;89.18
44359;BME280;30077;52.474;13.326;2022-11-30T11:12:55;101886.53;;;6.20;89.39
44359;BME280;30077;52.474;13.326;2022-11-30T11:23:21;101891.53;;;6.57;88.85
44359;BME280;30077;52.474;13.326;2022-11-30T11:28:23;101895.97;;;6.58;87.95
44359;BME280;30077;52.474;13.326;2022-11-30T11:33:27;101897.22;;;6.08;90.85
44359;BME280;30077;52.474;13.326;2022-11-30T11:38:31;101898.97;;;6.09;91.37
44359;BME280;30077;52.474;13.326;2022-11-30T11:49:06;101900.00;;;5.84;93.29
44359;BME280;30077;52.474;13.326;2022-11-30T11:54:19;101902.63;;;5.87;93.62
44359;BME280;30077;52.474;13.326;2022-11-30T11:59:31;101908.81;;;5.87;93.97
44359;BME280;30077;52.474;13.326;2022-11-30T12:10:10;101897.28;;;5.97;93.89
44359;BME280;30077;52.474;13.326;2022-11-30T12:15:13;101907.81;;;6.11;93.21
44359;BME280;30077;52.474;13.326;2022-11-30T12:20:22;101911.41;;;5.98;94.42
44359;BME280;30077;52.474;13.326;2022-11-30T12:25:40;101907.94;;;5.84;94.47
44359;BME280;30077;52.474;13.326;2022-11-30T12:36:51;101914.97;;;5.94;94.24
44359;BME280;30077;52.474;13.326;2022-11-30T12:42:06;101907.94;;;5.84;93.63
44359;BME280;30077;52.474;13.326;2022-11-30T12:52:51;101909.03;;;5.34;96.41
44359;BME280;30077;52.474;13.326;2022-11-30T13:03:30;101915.28;;;5.23;99.09
44359;BME280;30077;52.474;13.326;2022-11-30T13:08:47;101915.28;;;5.17;99.14
44359;BME280;30077;52.474;13.326;2022-11-30T13:13:51;101910.84;;;5.27;98.86
44359;BME280;30077;52.474;13.326;2022-11-30T13:18:58;101918.78;;;5.31;99.10
44359;BME280;30077;52.474;13.326;2022-11-30T13:24:42;101922.31;;;5.30;98.31
44359;BME280;30077;52.474;13.326;2022-11-30T13:29:58;101926.72;;;5.22;98.68
44359;BME280;30077;52.474;13.326;2022-11-30T13:40:29;101922.34;;;5.11;98.43
44359;BME280;30077;52.474;13.326;2022-11-30T13:45:33;101930.31;;;4.92;98.11
44359;BME280;30077;52.474;13.326;2022-11-30T13:50:37;101925.03;;;4.95;98.29
44359;BME280;30077;52.474;13.326;2022-11-30T13:55:49;101917.13;;;4.69;98.16
44359;BME280;30077;52.474;13.326;2022-11-30T14:16:40;101941.56;;;3.55;100.00
44359;BME280;30077;52.474;13.326;2022-11-30T14:21:42;101952.78;;;3.16;100.00
44359;BME280;30077;52.474;13.326;2022-11-30T14:26:44;101965.75;;;2.80;100.00
44359;BME280;30077;52.474;13.326;2022-11-30T14:31:54;101963.06;;;2.76;100.00
44359;BME280;30077;52.474;13.326;2022-11-30T14:37:00;101970.06;;;2.69;100.00
44359;BME280;30077;52.474;13.326;2022-11-30T14:42:04;101977.22;;;2.87;100.00
44359;BME280;30077;52.474;13.326;2022-11-30T14:58:11;101980.69;;;2.80;100.00
44359;BME280;30077;52.474;13.326;2022-11-30T15:03:25;101975.56;;;2.07;100.00
44359;BME280;30077;52.474;13.326;2022-11-30T15:08:33;101980.91;;;2.13;100.00
44359;BME280;30077;52.474;13.326;2022-11-30T15:13:45;101981.19;;;2.37;100.00
44359;BME280;30077;52.474;13.326;2022-11-30T15:18:47;101988.31;;;2.48;100.00
44359;BME280;30077;52.474;13.326;2022-11-30T15:23:48;102004.09;;;2.48;100.00
44359;BME280;30077;52.474;13.326;2022-11-30T15:28:56;102005.91;;;2.52;100.00
44359;BME280;30077;52.474;13.326;2022-11-30T15:33:59;102008.50;;;2.50;100.00
44359;BME280;30077;52.474;13.326;2022-11-30T15:39:02;101994.44;;;2.48;100.00
44359;BME280;30077;52.474;13.326;2022-11-30T15:44:03;101996.22;;;2.49;100.00
44359;BME280;30077;52.474;13.326;2022-11-30T15:54:05;102008.19;;;2.20;100.00
44359;BME280;30077;52.474;13.326;2022-11-30T16:04:06;102015.63;;;1.78;100.00
44359;BME280;30077;52.474;13.326;2022-11-30T16:09:19;102009.22;;;1.59;100.00
44359;BME280;30077;52.474;13.326;2022-11-30T16:14:20;102024.13;;;1.59;100.00
44359;BME280;30077;52.474;13.326;2022-11-30T16:19:20;102028.00;;;1.88;100.00
44359;BME280;30077;52.474;13.326;2022-11-30T16:24:21;102025.66;;;2.11;100.00
44359;BME280;30077;52.474;13.326;2022-11-30T16:29:23;102032.06;;;2.33;100.00
44359;BME280;30077;52.474;13.326;2022-11-30T16:34:23;102033.63;;;2.16;100.00
44359;BME280;30077;52.474;13.326;2022-11-30T16:39:23;102036.19;;;2.13;100.00
44359;BME280;30077;52.474;13.326;2022-11-30T16:44:23;102038.88;;;2.16;100.00
44359;BME280;30077;52.474;13.326;2022-11-30T16:49:24;102041.69;;;2.30;100.00
44359;BME280;30077;52.474;13.326;2022-11-30T16:54:24;102037.38;;;2.39;100.00
44359;BME280;30077;52.474;13.326;2022-11-30T16:59:24;102042.66;;;2.42;100.00
44359;BME280;30077;52.474;13.326;2022-11-30T17:04:25;102051.31;;;2.29;100.00
44359;BME280;30077;52.474;13.326;2022-11-30T17:09:28;102040.69;;;2.20;100.00
44359;BME280;30077;52.474;13.326;2022-11-30T17:14:29;102057.34;;;2.19;100.00
44359;BME280;30077;52.474;13.326;2022-11-30T17:19:29;102055.28;;;1.93;100.00
44359;BME280;30077;52.474;13.326;2022-11-30T17:24:30;102057.59;;;1.71;100.00
44359;BME280;30077;52.474;13.326;2022-11-30T17:29:30;102059.28;;;1.65;100.00
44359;BME280;30077;52.474;13.326;2022-11-30T17:34:31;102065.38;;;1.63;100.00
44359;BME280;30077;52.474;13.326;2022-11-30T17:39:31;102068.00;;;1.60;100.00
44359;BME280;30077;52.474;13.326;2022-11-30T17:44:32;102072.44;;;1.67;100.00
44359;BME280;30077;52.474;13.326;2022-11-30T17:49:33;102068.06;;;1.64;100.00
44359;BME280;30077;52.474;13.326;2022-11-30T17:54:34;102078.72;;;1.77;100.00
44359;BME280;30077;52.474;13.326;2022-11-30T17:59:34;102076.38;;;1.98;100.00
44359;BME280;30077;52.474;13.326;2022-11-30T18:04:34;102074.44;;;1.82;100.00
44359;BME280;30077;52.474;13.326;2022-11-30T18:09:34;102070.97;;;1.86;100.00
44359;BME280;30077;52.474;13.326;2022-11-30T18:14:36;102084.81;;;1.74;100.00
44359;BME280;30077;52.474;13.326;2022-11-30T18:19:36;102095.66;;;1.96;100.00
44359;BME280;30077;52.474;13.326;2022-11-30T18:24:36;102084.06;;;1.81;100.00
44359;BME280;30077;52.474;13.326;2022-11-30T18:29:38;102085.84;;;1.84;100.00
44359;BME280;30077;52.474;13.326;2022-11-30T18:34:38;102096.22;;;1.73;100.00
44359;BME280;30077;52.474;13.326;2022-11-30T18:39:39;102103.19;;;1.69;100.00
44359;BME280;30077;52.474;13.326;2022-11-30T18:44:39;102111.84;;;1.61;100.00
44359;BME280;30077;52.474;13.326;2022-11-30T18:49:39;102108.94;;;1.44;100.00
44359;BME280;30077;52.474;13.326;2022-11-30T18:54:39;102109.16;;;1.59;100.00
44359;BME280;30077;52.474;13.326;2022-11-30T18:59:41;102117.09;;;1.61;100.00
44359;BME280;30077;52.474;13.326;2022-11-30T19:04:43;102115.34;;;1.60;100.00
44359;BME280;30077;52.474;13.326;2022-11-30T19:09:43;102112.66;;;1.58;100.00
44359;BME280;30077;52.474;13.326;2022-11-30T19:14:44;102125.88;;;1.60;100.00
44359;BME280;30077;52.474;13.326;2022-11-30T19:19:44;102123.34;;;1.67;100.00
44359;BME280;30077;52.474;13.326;2022-11-30T19:24:47;102117.97;;;1.61;100.00
44359;BME280;30077;52.474;13.326;2022-11-30T19:29:47;102125.94;;;1.64;100.00
44359;BME280;30077;52.474;13.326;2022-11-30T19:34:47;102127.84;;;1.76;100.00
44359;BME280;30077;52.474;13.326;2022-11-30T19:39:48;102124.44;;;1.83;100.00
44359;BME280;30077;52.474;13.326;2022-11-30T19:44:48;102142.03;;;1.87;100.00
44359;BME280;30077;52.474;13.326;2022-11-30T19:49:49;102146.09;;;1.67;100.00
44359;BME280;30077;52.474;13.326;2022-11-30T19:54:49;102150.31;;;1.56;100.00
44359;BME280;30077;52.474;13.326;2022-11-30T19:59:50;102150.94;;;1.39;100.00
44359;BME280;30077;52.474;13.326;2022-11-30T20:04:53;102150.31;;;1.53;100.00
44359;BME280;30077;52.474;13.326;2022-11-30T20:09:54;102157.44;;;1.63;100.00
44359;BME280;30077;52.474;13.326;2022-11-30T20:14:54;102157.50;;;1.66;100.00
44359;BME280;30077;52.474;13.326;2022-11-30T20:19:54;102168.06;;;1.69;100.00
44359;BME280;30077;52.474;13.326;2022-11-30T20:24:55;102168.25;;;1.81;100.00
44359;BME280;30077;52.474;13.326;2022-11-30T20:29:56;102171.53;;;1.65;100.00
44359;BME280;30077;52.474;13.326;2022-11-30T20:34:58;102164.50;;;1.64;100.00
44359;BME280;30077;52.474;13.326;2022-11-30T20:39:58;102161.00;;;1.65;100.00
44359;BME280;30077;52.474;13.326;2022-11-30T20:44:59;102164.69;;;1.76;100.00
44359;BME280;30077;52.474;13.326;2022-11-30T20:50:01;102170.81;;;1.75;100.00
44359;BME280;30077;52.474;13.326;2022-11-30T20:55:02;102165.47;;;1.71;100.00
44359;BME280;30077;52.474;13.326;2022-11-30T21:00:03;102175.22;;;1.76;100.00
44359;BME280;30077;52.474;13.326;2022-11-30T21:05:03;102168.44;;;1.93;100.00
44359;BME280;30077;52.474;13.326;2022-11-30T21:10:04;102168.50;;;2.00;100.00
44359;BME280;30077;52.474;13.326;2022-11-30T21:15:06;102173.66;;;1.90;100.00
44359;BME280;30077;52.474;13.326;2022-11-30T21:20:07;102177.34;;;2.02;100.00
44359;BME280;30077;52.474;13.326;2022-11-30T21:25:08;102184.31;;;2.00;100.00
44359;BME280;30077;52.474;13.326;2022-11-30T21:30:10;102189.63;;;2.01;100.00
44359;BME280;30077;52.474;13.326;2022-11-30T21:35:10;102190.50;;;2.02;100.00
44359;BME280;30077;52.474;13.326;2022-11-30T21:40:11;102188.69;;;1.98;100.00
44359;BME280;30077;52.474;13.326;2022-11-30T21:45:11;102187.91;;;2.05;100.00
44359;BME280;30077;52.474;13.326;2022-11-30T21:50:11;102186.16;;;2.04;100.00
44359;BME280;30077;52.474;13.326;2022-11-30T21:55:12;102174.72;;;2.03;100.00
44359;BME280;30077;52.474;13.326;2022-11-30T22:00:12;102184.47;;;2.09;100.00
44359;BME280;30077;52.474;13.326;2022-11-30T22:05:13;102198.50;;;2.09;100.00
44359;BME280;30077;52.474;13.326;2022-11-30T22:10:14;102192.22;;;2.00;100.00
44359;BME280;30077;52.474;13.326;2022-11-30T22:15:14;102184.28;;;1.97;100.00
44359;BME280;30077;52.474;13.326;2022-11-30T22:20:16;102191.44;;;2.07;100.00
44359;BME280;30077;52.474;13.326;2022-11-30T22:25:18;102196.84;;;2.16;100.00
44359;BME280;30077;52.474;13.326;2022-11-30T22:30:18;102194.94;;;2.06;100.00
44359;BME280;30077;52.474;13.326;2022-11-30T22:35:18;102199.38;;;2.08;100.00
44359;BME280;30077;52.474;13.326;2022-11-30T22:40:19;102192.97;;;1.89;100.00
44359;BME280;30077;52.474;13.326;2022-11-30T22:45:19;102194.44;;;1.72;100.00
44359;BME280;30077;52.474;13.326;2022-11-30T22:50:19;102199.69;;;1.72;100.00
44359;BME280;30077;52.474;13.326;2022-11-30T22:55:19;102198.91;;;1.78;100.00
44359;BME280;30077;52.474;13.326;2022-11-30T23:00:20;102182.16;;;1.71;100.00
44359;BME280;30077;52.474;13.326;2022-11-30T23:05:20;102180.22;;;1.61;100.00
44359;BME280;30077;52.474;13.326;2022-11-30T23:10:21;102177.47;;;1.53;100.00
44359;BME280;30077;52.474;13.326;2022-11-30T23:15:22;102178.19;;;1.44;100.00
44359;BME280;30077;52.474;13.326;2022-11-30T23:20:22;102177.59;;;1.61;100.00
44359;BME280;30077;52.474;13.326;2022-11-30T23:25:22;102170.72;;;1.71;100.00
44359;BME280;30077;52.474;13.326;2022-11-30T23:30:23;102173.56;;;1.84;100.00
44359;BME280;30077;52.474;13.326;2022-11-30T23:35:23;102179.59;;;1.77;100.00
44359;BME280;30077;52.474;13.326;2022-11-30T23:40:23;102171.75;;;1.79;100.00
44359;BME280;30077;52.474;13.326;2022-11-30T23:45:25;102170.00;;;1.79;100.00
44359;BME280;30077;52.474;13.326;2022-11-30T23:50:25;102163.00;;;1.81;100.00
44359;BME280;30077;52.474;13.326;2022-11-30T23:55:27;102169.28;;;1.89;100.00
